createdAt,value
2022-11-19T00:00:53.618Z,4.10
2022-11-19T00:01:53.662Z,4.00
2022-11-19T00:02:53.572Z,3.70
2022-11-19T00:03:53.587Z,3.80
2022-11-19T00:04:53.551Z,3.90
2022-11-19T00:05:53.539Z,4.00
2022-11-19T00:06:53.541Z,4.10
2022-11-19T00:07:53.537Z,3.90
2022-11-19T00:08:53.505Z,4.10
2022-11-19T00:09:53.494Z,3.90
2022-11-19T00:10:53.483Z,4.10
2022-11-19T00:11:53.475Z,3.90
2022-11-19T00:12:53.478Z,4.10
2022-11-19T00:13:53.451Z,4.00
2022-11-19T00:14:53.441Z,3.70
2022-11-19T00:15:53.427Z,3.90
2022-11-19T00:16:53.416Z,4.00
2022-11-19T00:17:53.405Z,3.70
2022-11-19T00:18:53.424Z,3.90
2022-11-19T00:19:53.383Z,4.00
2022-11-19T00:20:53.372Z,3.90
2022-11-19T00:21:53.361Z,4.10
2022-11-19T00:22:53.349Z,3.80
2022-11-19T00:23:53.357Z,4.10
2022-11-19T00:24:53.333Z,4.10
2022-11-19T00:25:53.324Z,4.00
2022-11-19T00:26:53.303Z,3.90
2022-11-19T00:27:53.293Z,3.80
2022-11-19T00:28:53.286Z,3.90
2022-11-19T00:29:53.271Z,3.80
2022-11-19T00:30:53.264Z,3.80
2022-11-19T00:31:53.248Z,4.10
2022-11-19T00:32:53.237Z,3.70
2022-11-19T00:33:53.226Z,3.80
2022-11-19T00:34:53.218Z,3.90
2022-11-19T00:35:53.204Z,4.10
2022-11-19T00:36:53.214Z,3.90
2022-11-19T00:37:53.181Z,3.80
2022-11-19T00:38:53.169Z,4.20
2022-11-19T00:39:53.184Z,4.20
2022-11-19T00:40:53.148Z,4.10
2022-11-19T00:41:53.141Z,4.30
2022-11-19T00:42:53.134Z,3.90
2022-11-19T00:43:53.115Z,3.80
2022-11-19T00:44:53.102Z,4.10
2022-11-19T00:45:53.091Z,3.90
2022-11-19T00:46:53.080Z,4.20
2022-11-19T00:47:53.071Z,3.90
2022-11-19T00:48:53.073Z,4.20
2022-11-19T00:49:53.046Z,3.90
2022-11-19T00:50:53.036Z,4.00
2022-11-19T00:51:53.024Z,3.80
2022-11-19T00:52:53.012Z,3.90
2022-11-19T00:53:53.002Z,4.20
2022-11-19T00:54:53.018Z,4.00
2022-11-19T00:55:52.997Z,3.80
2022-11-19T00:56:52.967Z,4.20
2022-11-19T00:57:52.956Z,4.20
2022-11-19T00:58:52.946Z,4.10
2022-11-19T00:59:52.935Z,4.20
2022-11-19T01:00:52.957Z,4.00
2022-11-19T01:01:52.912Z,3.90
2022-11-19T01:02:52.901Z,4.20
2022-11-19T01:03:52.890Z,4.00
2022-11-19T01:04:52.881Z,4.20
2022-11-19T01:05:52.867Z,4.20
2022-11-19T01:06:52.862Z,4.00
2022-11-19T01:07:52.844Z,4.40
2022-11-19T01:08:52.833Z,4.00
2022-11-19T01:09:52.822Z,4.20
2022-11-19T01:10:52.810Z,3.90
2022-11-19T01:11:52.815Z,4.40
2022-11-19T01:12:52.794Z,4.10
2022-11-19T01:13:52.777Z,3.90
2022-11-19T01:14:52.766Z,4.10
2022-11-19T01:15:52.755Z,4.10
2022-11-19T01:16:52.745Z,4.30
2022-11-19T01:17:52.734Z,4.30
2022-11-19T01:18:52.733Z,4.10
2022-11-19T01:19:52.713Z,4.50
2022-11-19T01:20:52.699Z,4.00
2022-11-19T01:21:52.697Z,4.10
2022-11-19T01:22:52.677Z,4.00
2022-11-19T01:23:52.668Z,4.30
2022-11-19T01:24:52.686Z,4.30
2022-11-19T01:25:52.643Z,4.20
2022-11-19T01:26:52.632Z,4.30
2022-11-19T01:27:52.637Z,4.10
2022-11-19T01:28:52.610Z,4.20
2022-11-19T01:29:52.599Z,4.10
2022-11-19T01:30:52.595Z,3.90
2022-11-19T01:31:52.576Z,4.30
2022-11-19T01:32:52.566Z,4.40
2022-11-19T01:33:52.555Z,4.40
2022-11-19T01:34:52.543Z,4.30
2022-11-19T01:35:52.532Z,4.20
2022-11-19T01:36:52.542Z,4.50
2022-11-19T01:37:52.511Z,4.30
2022-11-19T01:38:52.500Z,4.20
2022-11-19T01:39:52.488Z,4.30
2022-11-19T01:40:52.480Z,4.30
2022-11-19T01:41:52.465Z,4.10
2022-11-19T01:42:52.487Z,3.90
2022-11-19T01:43:52.493Z,4.30
2022-11-19T01:44:52.432Z,4.40
2022-11-19T01:45:52.422Z,4.40
2022-11-19T01:46:52.408Z,4.10
2022-11-19T01:47:52.399Z,4.20
2022-11-19T01:48:52.392Z,4.30
2022-11-19T01:49:52.375Z,4.30
2022-11-19T01:50:52.364Z,4.40
2022-11-19T01:51:52.354Z,4.90
2022-11-19T01:52:52.342Z,4.40
2022-11-19T01:53:52.330Z,4.50
2022-11-19T01:54:52.325Z,4.00
2022-11-19T01:55:52.308Z,4.20
2022-11-19T01:56:52.297Z,4.30
2022-11-19T01:57:52.285Z,4.20
2022-11-19T01:58:52.276Z,4.50
2022-11-19T01:59:52.284Z,4.20
2022-11-19T02:00:52.259Z,4.50
2022-11-19T02:01:52.241Z,4.50
2022-11-19T02:02:52.230Z,4.40
2022-11-19T02:03:52.219Z,4.40
2022-11-19T02:04:52.208Z,4.10
2022-11-19T02:05:52.196Z,4.30
2022-11-19T02:06:52.215Z,4.30
2022-11-19T02:07:52.173Z,4.40
2022-11-19T02:08:52.163Z,4.40
2022-11-19T02:09:52.152Z,4.50
2022-11-19T02:10:52.143Z,4.70
2022-11-19T02:11:52.130Z,4.40
2022-11-19T02:12:52.134Z,4.50
2022-11-19T02:13:52.108Z,4.70
2022-11-19T02:14:54.794Z,4.60
2022-11-19T02:15:52.103Z,4.50
2022-11-19T02:16:52.073Z,4.40
2022-11-19T02:17:52.063Z,4.50
2022-11-19T02:18:52.072Z,4.30
2022-11-19T02:19:52.041Z,4.50
2022-11-19T02:20:52.029Z,4.50
2022-11-19T02:21:52.017Z,4.70
2022-11-19T02:22:52.005Z,4.40
2022-11-19T02:23:51.996Z,4.60
2022-11-19T02:24:51.996Z,4.40
2022-11-19T02:25:51.972Z,4.60
2022-11-19T02:26:51.964Z,4.50
2022-11-19T02:27:51.950Z,4.50
2022-11-19T02:28:51.939Z,4.70
2022-11-19T02:29:51.929Z,4.40
2022-11-19T02:30:51.922Z,4.00
2022-11-19T02:31:51.932Z,4.40
2022-11-19T02:32:51.894Z,4.30
2022-11-19T02:33:51.883Z,4.40
2022-11-19T02:34:51.872Z,4.50
2022-11-19T02:35:51.861Z,4.30
2022-11-19T02:36:51.856Z,4.70
2022-11-19T02:37:51.839Z,4.60
2022-11-19T02:38:51.827Z,4.40
2022-11-19T02:39:51.817Z,4.50
2022-11-19T02:40:51.805Z,4.80
2022-11-19T02:41:51.793Z,4.70
2022-11-19T02:42:51.812Z,4.70
2022-11-19T02:43:51.771Z,4.40
2022-11-19T02:44:51.760Z,5.10
2022-11-19T02:45:51.749Z,4.70
2022-11-19T02:46:51.740Z,4.90
2022-11-19T02:47:51.746Z,4.50
2022-11-19T02:48:51.752Z,4.70
2022-11-19T02:49:51.704Z,4.70
2022-11-19T02:50:51.692Z,4.60
2022-11-19T02:51:51.681Z,4.60
2022-11-19T02:52:51.670Z,4.70
2022-11-19T02:53:51.662Z,4.50
2022-11-19T02:54:51.663Z,4.70
2022-11-19T02:55:51.637Z,4.50
2022-11-19T02:56:51.627Z,4.60
2022-11-19T02:57:51.615Z,4.50
2022-11-19T02:58:51.603Z,4.40
2022-11-19T02:59:51.592Z,4.50
2022-11-19T03:00:51.589Z,4.60
2022-11-19T03:01:51.607Z,4.50
2022-11-19T03:02:51.557Z,4.40
2022-11-19T03:03:51.564Z,4.50
2022-11-19T03:04:51.537Z,4.70
2022-11-19T03:05:51.525Z,4.60
2022-11-19T03:06:51.518Z,4.60
2022-11-19T03:07:51.502Z,4.40
2022-11-19T03:08:51.492Z,4.80
2022-11-19T03:09:51.480Z,4.60
2022-11-19T03:10:51.469Z,4.50
2022-11-19T03:11:51.457Z,4.40
2022-11-19T03:12:51.454Z,4.50
2022-11-19T03:13:51.437Z,4.60
2022-11-19T03:14:51.423Z,4.60
2022-11-19T03:15:51.412Z,4.30
2022-11-19T03:16:51.401Z,4.30
2022-11-19T03:17:51.390Z,4.60
2022-11-19T03:18:51.411Z,4.40
2022-11-19T03:19:51.386Z,4.50
2022-11-19T03:20:51.356Z,4.30
2022-11-19T03:21:51.352Z,4.50
2022-11-19T03:22:51.334Z,4.30
2022-11-19T03:23:51.323Z,4.70
2022-11-19T03:24:51.334Z,4.60
2022-11-19T03:25:51.300Z,4.60
2022-11-19T03:26:51.293Z,4.30
2022-11-19T03:27:51.280Z,4.60
2022-11-19T03:28:51.266Z,4.60
2022-11-19T03:29:51.256Z,4.40
2022-11-19T03:30:51.260Z,4.80
2022-11-19T03:31:51.236Z,4.40
2022-11-19T03:32:51.225Z,4.70
2022-11-19T03:33:51.214Z,4.50
2022-11-19T03:34:51.200Z,4.90
2022-11-19T03:35:51.206Z,4.80
2022-11-19T03:36:51.182Z,4.80
2022-11-19T03:37:51.168Z,4.20
2022-11-19T03:38:51.155Z,4.70
2022-11-19T03:39:51.146Z,4.70
2022-11-19T03:40:51.131Z,4.90
2022-11-19T03:41:51.121Z,5.00
2022-11-19T03:42:51.117Z,5.00
2022-11-19T03:43:51.101Z,4.60
2022-11-19T03:44:51.088Z,4.50
2022-11-19T03:45:51.076Z,4.50
2022-11-19T03:46:51.065Z,4.60
2022-11-19T03:47:51.055Z,4.40
2022-11-19T03:48:51.065Z,4.50
2022-11-19T03:49:51.031Z,4.90
2022-11-19T03:50:51.022Z,4.80
2022-11-19T03:51:51.028Z,4.50
2022-11-19T03:52:50.997Z,4.60
2022-11-19T03:53:50.992Z,4.60
2022-11-19T03:54:50.994Z,4.80
2022-11-19T03:55:50.964Z,5.20
2022-11-19T03:56:50.953Z,4.40
2022-11-19T03:57:50.942Z,5.00
2022-11-19T03:58:50.935Z,4.90
2022-11-19T03:59:50.919Z,4.60
2022-11-19T04:00:50.931Z,4.80
2022-11-19T04:01:50.934Z,4.70
2022-11-19T04:02:50.887Z,5.00
2022-11-19T04:03:50.877Z,4.60
2022-11-19T04:04:50.866Z,4.80
2022-11-19T04:05:50.854Z,4.40
2022-11-19T04:06:50.874Z,4.80
2022-11-19T04:07:50.855Z,4.90
2022-11-19T04:08:50.820Z,4.60
2022-11-19T04:09:50.808Z,4.80
2022-11-19T04:10:50.797Z,4.50
2022-11-19T04:12:20.540Z,4.20
2022-11-19T04:13:20.527Z,4.50
2022-11-19T04:14:20.515Z,4.80
2022-11-19T04:15:20.503Z,4.90
2022-11-19T04:16:20.493Z,4.60
2022-11-19T04:17:20.487Z,4.40
2022-11-19T04:18:20.469Z,4.60
2022-11-19T04:19:20.719Z,4.50
2022-11-19T04:20:20.448Z,4.80
2022-11-19T04:21:20.437Z,4.70
2022-11-19T04:22:20.425Z,4.80
2022-11-19T04:23:20.450Z,4.90
2022-11-19T04:24:20.404Z,4.80
2022-11-19T04:25:20.391Z,4.60
2022-11-19T04:26:20.383Z,4.60
2022-11-19T04:27:20.368Z,5.10
2022-11-19T04:28:20.359Z,4.80
2022-11-19T04:29:20.641Z,4.90
2022-11-19T04:30:20.335Z,4.80
2022-11-19T04:31:20.324Z,4.60
2022-11-19T04:32:20.313Z,4.60
2022-11-19T04:33:20.301Z,5.00
2022-11-19T04:34:20.290Z,4.60
2022-11-19T04:35:20.368Z,5.10
2022-11-19T04:36:20.269Z,5.00
2022-11-19T04:37:20.256Z,4.80
2022-11-19T04:38:20.245Z,5.00
2022-11-19T04:39:20.680Z,4.90
2022-11-19T04:40:20.228Z,4.70
2022-11-19T04:41:20.243Z,5.00
2022-11-19T04:42:20.200Z,4.90
2022-11-19T04:43:20.189Z,4.90
2022-11-19T04:44:20.178Z,4.90
2022-11-19T04:45:20.166Z,5.00
2022-11-19T04:46:20.156Z,5.00
2022-11-19T04:47:20.153Z,5.10
2022-11-19T04:48:20.133Z,4.80
2022-11-19T04:49:20.429Z,5.10
2022-11-19T04:50:20.118Z,5.10
2022-11-19T04:51:20.105Z,4.70
2022-11-19T04:52:20.087Z,4.60
2022-11-19T04:53:20.100Z,4.90
2022-11-19T04:54:20.068Z,5.20
2022-11-19T04:55:20.070Z,4.90
2022-11-19T04:56:20.044Z,5.00
2022-11-19T04:57:20.034Z,5.10
2022-11-19T04:58:20.021Z,5.20
2022-11-19T04:59:20.311Z,5.30
2022-11-19T05:00:19.999Z,5.60
2022-11-19T05:01:20.060Z,5.20
2022-11-19T05:02:19.977Z,5.20
2022-11-19T05:03:19.965Z,4.90
2022-11-19T05:04:19.953Z,5.30
2022-11-19T05:05:19.964Z,5.10
2022-11-19T05:06:19.931Z,5.10
2022-11-19T05:07:20.016Z,4.60
2022-11-19T05:08:19.910Z,5.20
2022-11-19T05:09:20.203Z,5.30
2022-11-19T05:10:19.886Z,5.00
2022-11-19T05:11:19.897Z,5.40
2022-11-19T05:12:19.863Z,5.20
2022-11-19T05:13:19.855Z,5.10
2022-11-19T05:14:19.842Z,5.20
2022-11-19T05:15:19.832Z,5.20
2022-11-19T05:16:19.821Z,5.00
2022-11-19T05:17:19.839Z,4.90
2022-11-19T05:18:19.797Z,5.30
2022-11-19T05:19:20.127Z,5.20
2022-11-19T05:20:19.773Z,4.90
2022-11-19T05:21:19.762Z,4.80
2022-11-19T05:22:19.752Z,5.20
2022-11-19T05:23:19.746Z,5.30
2022-11-19T05:24:19.730Z,5.00
2022-11-19T05:25:19.719Z,5.00
2022-11-19T05:26:19.708Z,5.30
2022-11-19T05:27:19.726Z,5.30
2022-11-19T05:28:24.877Z,5.30
2022-11-19T05:29:20.923Z,5.10
2022-11-19T05:30:19.665Z,5.00
2022-11-19T05:31:19.651Z,5.10
2022-11-19T05:32:19.640Z,5.00
2022-11-19T05:33:19.628Z,5.40
2022-11-19T05:34:19.617Z,5.30
2022-11-19T05:35:19.626Z,5.30
2022-11-19T05:36:19.597Z,5.30
2022-11-19T05:37:19.584Z,5.30
2022-11-19T05:38:19.573Z,5.10
2022-11-19T05:39:22.273Z,5.10
2022-11-19T05:40:19.550Z,5.30
2022-11-19T05:41:19.567Z,5.20
2022-11-19T05:42:19.527Z,5.00
2022-11-19T05:43:19.538Z,5.20
2022-11-19T05:44:19.505Z,5.50
2022-11-19T05:45:19.494Z,5.50
2022-11-19T05:46:19.484Z,5.50
2022-11-19T05:47:19.477Z,5.40
2022-11-19T05:48:19.461Z,5.30
2022-11-19T05:49:19.769Z,5.50
2022-11-19T05:50:19.438Z,5.40
2022-11-19T05:51:19.427Z,5.60
2022-11-19T05:52:19.420Z,5.40
2022-11-19T05:53:19.410Z,5.20
2022-11-19T05:54:19.455Z,5.40
2022-11-19T05:55:19.381Z,5.50
2022-11-19T05:56:19.371Z,5.50
2022-11-19T05:57:19.361Z,5.50
2022-11-19T05:58:19.348Z,5.20
2022-11-19T05:59:19.680Z,5.60
2022-11-19T06:00:19.326Z,5.40
2022-11-19T06:01:19.315Z,5.70
2022-11-19T06:02:19.304Z,5.60
2022-11-19T06:03:19.306Z,5.50
2022-11-19T06:04:19.285Z,5.70
2022-11-19T06:05:19.284Z,5.70
2022-11-19T06:06:19.259Z,5.60
2022-11-19T06:07:19.271Z,5.70
2022-11-19T06:08:19.236Z,5.70
2022-11-19T06:09:19.597Z,5.60
2022-11-19T06:10:19.215Z,5.30
2022-11-19T06:11:19.233Z,5.30
2022-11-19T06:12:19.193Z,5.70
2022-11-19T06:13:19.179Z,5.70
2022-11-19T06:14:19.172Z,5.40
2022-11-19T06:15:19.173Z,5.60
2022-11-19T06:16:19.145Z,5.30
2022-11-19T06:17:19.155Z,5.40
2022-11-19T06:18:19.126Z,5.60
2022-11-19T06:19:19.573Z,5.60
2022-11-19T06:20:19.102Z,5.80
2022-11-19T06:21:19.090Z,5.40
2022-11-19T06:22:19.080Z,5.80
2022-11-19T06:23:19.075Z,5.80
2022-11-19T06:24:19.060Z,5.50
2022-11-19T06:25:19.045Z,5.40
2022-11-19T06:26:19.037Z,5.50
2022-11-19T06:27:19.024Z,5.60
2022-11-19T06:28:19.012Z,5.50
2022-11-19T06:29:19.365Z,5.70
2022-11-19T06:30:18.989Z,5.50
2022-11-19T06:31:18.995Z,5.50
2022-11-19T06:32:18.969Z,5.10
2022-11-19T06:33:18.958Z,5.70
2022-11-19T06:34:18.945Z,5.50
2022-11-19T06:35:18.941Z,5.30
2022-11-19T06:36:18.922Z,5.90
2022-11-19T06:37:18.911Z,5.40
2022-11-19T06:38:18.899Z,6.00
2022-11-19T06:39:19.334Z,5.40
2022-11-19T06:40:18.877Z,5.50
2022-11-19T06:41:18.884Z,5.40
2022-11-19T06:42:18.856Z,5.70
2022-11-19T06:43:18.844Z,5.50
2022-11-19T06:44:18.833Z,5.80
2022-11-19T06:45:18.821Z,5.60
2022-11-19T06:46:18.810Z,5.50
2022-11-19T06:47:18.842Z,5.60
2022-11-19T06:48:18.788Z,5.60
2022-11-19T06:49:20.518Z,5.60
2022-11-19T06:50:18.766Z,5.40
2022-11-19T06:51:18.755Z,5.70
2022-11-19T06:52:18.745Z,5.80
2022-11-19T06:53:18.763Z,5.90
2022-11-19T06:54:18.720Z,5.70
2022-11-19T06:55:18.710Z,5.60
2022-11-19T06:56:18.702Z,5.10
2022-11-19T06:57:18.688Z,5.20
2022-11-19T06:58:18.676Z,5.50
2022-11-19T06:59:19.020Z,5.70
2022-11-19T07:00:18.659Z,5.50
2022-11-19T07:01:18.680Z,5.60
2022-11-19T07:02:21.443Z,5.50
2022-11-19T07:03:18.646Z,5.40
2022-11-19T07:04:18.613Z,5.20
2022-11-19T07:05:18.621Z,5.40
2022-11-19T07:06:18.587Z,5.60
2022-11-19T07:07:18.608Z,5.30
2022-11-19T07:08:18.567Z,5.60
2022-11-19T07:09:18.864Z,5.40
2022-11-19T07:10:18.544Z,5.10
2022-11-19T07:11:18.537Z,5.80
2022-11-19T07:12:18.522Z,5.30
2022-11-19T07:13:18.511Z,5.50
2022-11-19T07:14:18.504Z,5.10
2022-11-19T07:15:18.486Z,5.60
2022-11-19T07:16:18.475Z,5.40
2022-11-19T07:17:18.494Z,5.10
2022-11-19T07:18:18.453Z,5.90
2022-11-19T07:19:18.916Z,5.00
2022-11-19T07:20:18.432Z,5.30
2022-11-19T07:21:18.420Z,5.20
2022-11-19T07:22:18.408Z,5.00
2022-11-19T07:23:18.412Z,5.20
2022-11-19T07:24:18.388Z,5.10
2022-11-19T07:25:18.379Z,5.30
2022-11-19T07:26:18.363Z,5.30
2022-11-19T07:27:18.352Z,5.20
2022-11-19T07:28:18.340Z,5.20
2022-11-19T07:29:18.721Z,5.40
2022-11-19T07:30:18.318Z,5.60
2022-11-19T07:31:18.310Z,5.70
2022-11-19T07:32:18.296Z,5.10
2022-11-19T07:33:18.285Z,5.10
2022-11-19T07:34:18.277Z,5.20
2022-11-19T07:35:18.293Z,5.60
2022-11-19T07:36:18.778Z,5.40
2022-11-19T07:37:18.239Z,5.00
2022-11-19T07:38:18.230Z,5.00
2022-11-19T07:39:18.803Z,5.20
2022-11-19T07:40:18.210Z,5.60
2022-11-19T07:41:18.203Z,5.40
2022-11-19T07:42:18.185Z,5.20
2022-11-19T07:43:18.174Z,5.20
2022-11-19T07:44:18.162Z,5.60
2022-11-19T07:45:18.152Z,5.10
2022-11-19T07:46:18.145Z,5.30
2022-11-19T07:47:18.135Z,5.10
2022-11-19T07:48:18.118Z,5.40
2022-11-19T07:49:18.484Z,4.90
2022-11-19T07:50:18.096Z,5.40
2022-11-19T07:51:18.103Z,5.60
2022-11-19T07:52:18.073Z,5.20
2022-11-19T07:53:18.092Z,5.50
2022-11-19T07:54:18.049Z,5.00
2022-11-19T07:55:18.041Z,5.20
2022-11-19T07:56:18.029Z,4.90
2022-11-19T07:57:18.016Z,4.90
2022-11-19T07:58:18.005Z,5.10
2022-11-19T07:59:18.462Z,5.00
2022-11-19T08:00:17.983Z,5.30
2022-11-19T08:01:18.023Z,5.50
2022-11-19T08:02:17.973Z,5.00
2022-11-19T08:03:17.949Z,5.30
2022-11-19T08:04:17.939Z,5.00
2022-11-19T08:05:17.933Z,5.20
2022-11-19T08:06:17.917Z,5.40
2022-11-19T08:07:17.951Z,5.20
2022-11-19T08:08:17.893Z,4.90
2022-11-19T08:09:18.412Z,5.20
2022-11-19T08:10:17.871Z,5.10
2022-11-19T08:11:17.882Z,4.80
2022-11-19T08:12:17.849Z,5.10
2022-11-19T08:13:17.840Z,5.20
2022-11-19T08:14:17.826Z,5.30
2022-11-19T08:15:17.815Z,5.10
2022-11-19T08:16:17.804Z,5.10
2022-11-19T08:17:17.799Z,5.10
2022-11-19T08:18:17.781Z,4.80
2022-11-19T08:19:18.233Z,4.90
2022-11-19T08:20:17.759Z,5.10
2022-11-19T08:21:17.748Z,5.10
2022-11-19T08:22:17.741Z,5.00
2022-11-19T08:23:17.746Z,4.90
2022-11-19T08:24:18.300Z,5.00
2022-11-19T08:25:17.713Z,4.80
2022-11-19T08:26:17.696Z,5.40
2022-11-19T08:27:17.681Z,5.00
2022-11-19T08:28:17.670Z,5.10
2022-11-19T08:29:17.690Z,5.10
2022-11-19T08:30:17.649Z,5.20
2022-11-19T08:31:17.638Z,5.10
2022-11-19T08:32:17.625Z,5.10
2022-11-19T08:33:17.613Z,5.30
2022-11-19T08:34:18.083Z,5.10
2022-11-19T08:35:17.610Z,5.00
2022-11-19T08:36:17.582Z,5.00
2022-11-19T08:37:17.568Z,5.00
2022-11-19T08:38:17.558Z,4.90
2022-11-19T08:39:17.563Z,4.70
2022-11-19T08:40:17.536Z,5.20
2022-11-19T08:41:17.546Z,5.10
2022-11-19T08:42:17.512Z,5.00
2022-11-19T08:43:17.502Z,4.80
2022-11-19T08:44:18.116Z,5.00
2022-11-19T08:45:20.817Z,4.90
2022-11-19T08:46:17.467Z,5.20
2022-11-19T08:47:17.464Z,4.80
2022-11-19T08:48:17.452Z,4.80
2022-11-19T08:49:17.435Z,4.90
2022-11-19T08:50:17.424Z,4.90
2022-11-19T08:51:17.412Z,4.60
2022-11-19T08:52:17.401Z,5.00
2022-11-19T08:53:17.397Z,5.20
2022-11-19T08:54:17.792Z,5.10
2022-11-19T08:55:17.383Z,4.80
2022-11-19T08:56:18.240Z,5.00
2022-11-19T08:57:17.349Z,5.00
2022-11-19T08:58:17.334Z,5.00
2022-11-19T08:59:17.591Z,5.00
2022-11-19T09:00:17.312Z,4.70
2022-11-19T09:01:17.398Z,5.00
2022-11-19T09:02:17.292Z,4.60
2022-11-19T09:03:17.278Z,5.00
2022-11-19T09:04:17.597Z,5.00
2022-11-19T09:05:17.262Z,4.80
2022-11-19T09:06:17.244Z,4.70
2022-11-19T09:07:17.273Z,5.00
2022-11-19T09:08:17.221Z,4.80
2022-11-19T09:09:17.209Z,4.90
2022-11-19T09:10:17.200Z,4.80
2022-11-19T09:11:17.248Z,5.10
2022-11-19T09:12:17.177Z,4.90
2022-11-19T09:13:17.165Z,5.00
2022-11-19T09:14:17.535Z,5.10
2022-11-19T09:15:17.144Z,4.80
2022-11-19T09:16:17.131Z,4.80
2022-11-19T09:17:17.126Z,4.80
2022-11-19T09:18:17.109Z,5.10
2022-11-19T09:19:17.102Z,4.60
2022-11-19T09:20:17.089Z,5.00
2022-11-19T09:21:17.076Z,5.00
2022-11-19T09:22:17.065Z,5.10
2022-11-19T09:23:17.072Z,5.10
2022-11-19T09:24:17.345Z,4.90
2022-11-19T09:25:17.031Z,5.00
2022-11-19T09:26:17.020Z,4.80
2022-11-19T09:27:17.032Z,4.90
2022-11-19T09:28:16.999Z,5.30
2022-11-19T09:29:17.002Z,4.90
2022-11-19T09:30:16.975Z,5.10
2022-11-19T09:31:16.965Z,4.60
2022-11-19T09:32:19.957Z,5.00
2022-11-19T09:33:17.940Z,5.00
2022-11-19T09:34:17.333Z,4.70
2022-11-19T09:35:16.951Z,4.80
2022-11-19T09:36:16.908Z,4.70
2022-11-19T09:37:16.897Z,4.90
2022-11-19T09:38:16.886Z,5.00
2022-11-19T09:39:16.876Z,4.70
2022-11-19T09:40:16.867Z,4.60
2022-11-19T09:41:16.869Z,4.80
2022-11-19T09:42:16.842Z,4.80
2022-11-19T09:43:16.978Z,4.70
2022-11-19T09:44:17.291Z,4.90
2022-11-19T09:45:16.813Z,4.70
2022-11-19T09:46:16.797Z,4.70
2022-11-19T09:47:16.792Z,4.70
2022-11-19T09:48:16.776Z,5.00
2022-11-19T09:49:16.762Z,4.60
2022-11-19T09:50:16.758Z,4.40
2022-11-19T09:51:16.741Z,4.50
2022-11-19T09:52:16.732Z,4.80
2022-11-19T09:53:16.738Z,4.60
2022-11-19T09:54:17.103Z,4.60
2022-11-19T09:55:16.696Z,4.60
2022-11-19T09:56:16.684Z,4.70
2022-11-19T09:57:16.673Z,4.60
2022-11-19T09:58:16.662Z,4.60
2022-11-19T09:59:16.676Z,4.40
2022-11-19T10:00:16.642Z,4.70
2022-11-19T10:01:16.627Z,4.50
2022-11-19T10:02:16.617Z,4.70
2022-11-19T10:03:16.671Z,4.50
2022-11-19T10:04:16.703Z,4.60
2022-11-19T10:05:16.591Z,4.70
2022-11-19T10:06:16.570Z,4.40
2022-11-19T10:07:16.587Z,4.30
2022-11-19T10:08:16.551Z,4.70
2022-11-19T10:09:16.540Z,4.40
2022-11-19T10:10:16.527Z,4.40
2022-11-19T10:11:16.522Z,4.50
2022-11-19T10:12:16.505Z,4.70
2022-11-19T10:13:16.493Z,4.60
2022-11-19T10:14:16.483Z,4.30
2022-11-19T10:15:16.489Z,4.50
2022-11-19T10:16:16.459Z,4.40
2022-11-19T10:17:16.472Z,4.40
2022-11-19T10:18:16.438Z,4.70
2022-11-19T10:19:16.444Z,4.60
2022-11-19T10:20:16.415Z,4.40
2022-11-19T10:21:16.403Z,4.40
2022-11-19T10:22:16.393Z,4.80
2022-11-19T10:23:16.387Z,4.40
2022-11-19T10:24:16.384Z,4.20
2022-11-19T10:25:16.359Z,4.70
2022-11-19T10:26:16.353Z,4.60
2022-11-19T10:27:16.341Z,4.30
2022-11-19T10:28:16.325Z,4.30
2022-11-19T10:29:16.320Z,4.40
2022-11-19T10:30:16.307Z,4.20
2022-11-19T10:31:16.307Z,4.30
2022-11-19T10:32:16.279Z,4.10
2022-11-19T10:33:16.290Z,4.30
2022-11-19T10:34:16.257Z,4.30
2022-11-19T10:35:16.253Z,4.40
2022-11-19T10:36:16.235Z,4.40
2022-11-19T10:37:16.224Z,4.50
2022-11-19T10:38:16.214Z,4.30
2022-11-19T10:39:16.201Z,4.40
2022-11-19T10:40:16.192Z,4.20
2022-11-19T10:41:16.201Z,4.30
2022-11-19T10:42:16.168Z,4.30
2022-11-19T10:43:20.651Z,4.20
2022-11-19T10:44:17.666Z,4.10
2022-11-19T10:45:16.135Z,4.20
2022-11-19T10:46:16.124Z,4.00
2022-11-19T10:47:16.147Z,4.30
2022-11-19T10:48:16.102Z,4.30
2022-11-19T10:49:16.140Z,4.30
2022-11-19T10:50:16.079Z,4.00
2022-11-19T10:51:16.068Z,3.80
2022-11-19T10:52:16.058Z,4.00
2022-11-19T10:53:16.052Z,4.10
2022-11-19T10:54:16.035Z,4.20
2022-11-19T10:55:16.022Z,4.30
2022-11-19T10:56:16.013Z,4.40
2022-11-19T10:57:16.001Z,4.10
2022-11-19T10:58:15.990Z,3.90
2022-11-19T10:59:15.984Z,3.90
2022-11-19T11:00:16.079Z,4.10
2022-11-19T11:01:15.988Z,4.10
2022-11-19T11:02:15.945Z,4.20
2022-11-19T11:03:15.952Z,4.20
2022-11-19T11:04:15.923Z,4.20
2022-11-19T11:05:15.917Z,4.20
2022-11-19T11:06:15.900Z,4.30
2022-11-19T11:07:15.934Z,4.00
2022-11-19T11:08:15.878Z,4.20
2022-11-19T11:09:15.866Z,3.90
2022-11-19T11:10:15.867Z,4.20
2022-11-19T11:11:15.865Z,4.20
2022-11-19T11:12:15.834Z,4.00
2022-11-19T11:13:15.820Z,4.10
2022-11-19T11:14:15.811Z,3.90
2022-11-19T11:15:15.801Z,3.90
2022-11-19T11:16:15.788Z,3.80
2022-11-19T11:17:15.799Z,4.00
2022-11-19T11:18:15.765Z,4.10
2022-11-19T11:19:16.156Z,3.80
2022-11-19T11:20:15.873Z,3.90
2022-11-19T11:21:15.733Z,3.80
2022-11-19T11:22:15.728Z,4.10
2022-11-19T11:23:15.732Z,3.70
2022-11-19T11:24:15.697Z,4.00
2022-11-19T11:25:15.687Z,3.80
2022-11-19T11:26:15.676Z,3.90
2022-11-19T11:27:15.665Z,3.70
2022-11-19T11:28:15.654Z,3.90
2022-11-19T11:29:15.647Z,3.70
2022-11-19T11:30:15.754Z,3.90
2022-11-19T11:31:15.619Z,3.60
2022-11-19T11:32:15.608Z,3.80
2022-11-19T11:33:15.598Z,4.00
2022-11-19T11:34:15.588Z,3.80
2022-11-19T11:35:16.295Z,3.70
2022-11-19T11:36:15.564Z,3.80
2022-11-19T11:37:15.557Z,3.90
2022-11-19T11:38:15.543Z,3.70
2022-11-19T11:39:15.530Z,3.80
2022-11-19T11:40:15.519Z,3.90
2022-11-19T11:42:04.256Z,3.70
2022-11-19T11:42:18.005Z,3.90
2022-11-19T11:43:15.485Z,3.40
2022-11-19T11:44:15.474Z,3.60
2022-11-19T11:45:15.463Z,3.70
2022-11-19T11:46:15.453Z,3.70
2022-11-19T11:47:15.462Z,3.70
2022-11-19T11:48:15.430Z,3.60
2022-11-19T11:49:15.419Z,3.80
2022-11-19T11:50:15.411Z,3.70
2022-11-19T11:51:15.421Z,3.70
2022-11-19T11:52:15.386Z,3.80
2022-11-19T11:53:15.389Z,3.50
2022-11-19T11:54:18.218Z,3.80
2022-11-19T11:55:15.352Z,3.60
2022-11-19T11:56:15.341Z,3.70
2022-11-19T11:57:15.329Z,3.70
2022-11-19T11:58:15.319Z,3.70
2022-11-19T11:59:15.312Z,3.50
2022-11-19T12:00:15.297Z,3.50
2022-11-19T12:01:15.969Z,3.70
2022-11-19T12:02:15.329Z,3.30
2022-11-19T12:03:15.261Z,3.80
2022-11-19T12:04:15.252Z,3.60
2022-11-19T12:05:15.259Z,3.50
2022-11-19T12:06:15.228Z,3.50
2022-11-19T12:07:15.263Z,3.40
2022-11-19T12:08:15.207Z,3.30
2022-11-19T12:09:15.195Z,3.70
2022-11-19T12:10:15.183Z,3.70
2022-11-19T12:11:15.180Z,3.60
2022-11-19T12:12:15.163Z,3.50
2022-11-19T12:13:15.149Z,3.70
2022-11-19T12:14:15.138Z,3.30
2022-11-19T12:15:15.127Z,3.50
2022-11-19T12:16:15.115Z,4.00
2022-11-19T12:17:15.127Z,3.80
2022-11-19T12:18:15.097Z,3.80
2022-11-19T12:19:15.085Z,3.70
2022-11-19T12:20:15.070Z,3.40
2022-11-19T12:21:15.067Z,3.50
2022-11-19T12:22:15.049Z,3.50
2022-11-19T12:23:15.073Z,3.40
2022-11-19T12:24:15.032Z,3.30
2022-11-19T12:25:15.016Z,3.30
2022-11-19T12:26:15.004Z,3.10
2022-11-19T12:27:14.995Z,3.20
2022-11-19T12:28:14.981Z,3.40
2022-11-19T12:29:14.992Z,3.40
2022-11-19T12:30:14.959Z,3.20
2022-11-19T12:31:14.949Z,3.50
2022-11-19T12:32:14.936Z,3.50
2022-11-19T12:33:14.926Z,3.40
2022-11-19T12:34:14.921Z,3.30
2022-11-19T12:35:14.919Z,3.20
2022-11-19T12:36:14.892Z,3.40
2022-11-19T12:37:14.880Z,3.50
2022-11-19T12:38:14.870Z,3.40
2022-11-19T12:39:15.002Z,3.50
2022-11-19T12:40:14.848Z,3.30
2022-11-19T12:41:14.844Z,3.30
2022-11-19T12:42:14.830Z,3.30
2022-11-19T12:43:14.814Z,3.60
2022-11-19T12:44:14.805Z,3.60
2022-11-19T12:45:14.792Z,3.20
2022-11-19T12:46:14.781Z,3.20
2022-11-19T12:47:14.785Z,3.10
2022-11-19T12:48:14.760Z,3.60
2022-11-19T12:49:14.746Z,3.40
2022-11-19T12:50:14.737Z,3.10
2022-11-19T12:51:14.724Z,3.20
2022-11-19T12:52:14.712Z,3.60
2022-11-19T12:53:14.718Z,3.30
2022-11-19T12:54:16.960Z,3.30
2022-11-19T12:55:14.698Z,3.10
2022-11-19T12:56:14.668Z,3.50
2022-11-19T12:57:14.657Z,3.20
2022-11-19T12:58:14.647Z,3.20
2022-11-19T12:59:14.651Z,3.50
2022-11-19T13:00:14.625Z,3.40
2022-11-19T13:01:14.694Z,3.60
2022-11-19T13:02:14.605Z,3.20
2022-11-19T13:03:14.592Z,3.30
2022-11-19T13:04:14.578Z,3.20
2022-11-19T13:05:14.582Z,3.00
2022-11-19T13:06:17.955Z,3.00
2022-11-19T13:07:14.607Z,3.40
2022-11-19T13:08:14.536Z,3.20
2022-11-19T13:09:14.523Z,3.30
2022-11-19T13:10:14.512Z,3.10
2022-11-19T13:11:14.551Z,3.20
2022-11-19T13:12:14.489Z,3.10
2022-11-19T13:13:14.481Z,3.20
2022-11-19T13:14:14.466Z,3.30
2022-11-19T13:15:14.457Z,3.30
2022-11-19T13:16:14.445Z,3.30
2022-11-19T13:17:14.463Z,3.20
2022-11-19T13:18:14.421Z,3.10
2022-11-19T13:19:14.410Z,3.20